Time;durP1;ratioP1;P1;durP2;ratioP2;P2;SDS_P1;SDS_P2;PMS_P1;PMS_P2;Temp;Humidity;BMP_temperature;BMP_pressure;BME280_temperature;BME280_humidity;BME280_pressure;Samples;Min_cycle;Max_cycle;Signal;HPM_P1;HPM_P2
2023/03/18 00:01:15;;;;;;;5.33;2.30;;;;;;;17.41;55.00;99863.38;5110855;28;20177;-61
2023/03/18 00:03:40;;;;;;;6.20;2.33;;;;;;;17.40;54.93;99855.25;5110329;28;20431;-61
2023/03/18 00:06:15;;;;;;;4.63;2.47;;;;;;;17.37;55.12;99856.81;5093241;28;20170;-61
2023/03/18 00:08:41;;;;;;;5.03;2.60;;;;;;;17.40;55.17;99864.59;5090444;28;20178;-61
2023/03/18 00:11:07;;;;;;;3.27;2.30;;;;;;;17.45;55.14;99852.88;5106639;28;20439;-61
2023/03/18 00:13:33;;;;;;;4.40;2.53;;;;;;;17.49;54.84;99864.31;5091411;28;21035;-61
2023/03/18 00:15:59;;;;;;;4.30;2.40;;;;;;;17.46;54.92;99867.97;5109691;28;20467;-61
2023/03/18 00:18:26;;;;;;;4.23;2.40;;;;;;;17.47;54.84;99870.44;5110521;28;20186;-61
2023/03/18 00:20:52;;;;;;;4.27;2.30;;;;;;;17.44;55.10;99865.50;5094376;28;20991;-61
2023/03/18 00:23:17;;;;;;;5.30;2.53;;;;;;;17.45;55.00;99872.03;5108990;28;20190;-61
2023/03/18 00:25:43;;;;;;;3.57;2.03;;;;;;;17.46;54.62;99870.81;5110365;28;20170;-61
2023/03/18 00:28:08;;;;;;;4.97;3.07;;;;;;;17.46;55.08;99876.53;5075235;28;20281;-61
2023/03/18 00:30:36;;;;;;;5.70;2.30;;;;;;;17.43;54.80;99880.97;5110074;28;20165;-61
2023/03/18 00:33:02;;;;;;;4.30;2.30;;;;;;;17.43;55.05;99874.44;5108112;27;20556;-61
2023/03/18 00:35:29;;;;;;;4.43;2.47;;;;;;;17.39;55.07;99885.78;5130668;27;20466;-61
2023/03/18 00:37:54;;;;;;;5.00;2.03;;;;;;;17.42;54.98;99893.59;5114087;27;20224;-61
2023/03/18 00:40:26;;;;;;;4.17;2.50;;;;;;;17.42;54.90;99881.34;5108748;28;20755;-60
2023/03/18 00:42:56;;;;;;;6.83;2.90;;;;;;;17.42;54.71;99887.91;5103353;28;20631;-61
2023/03/18 00:45:28;;;;;;;4.73;2.60;;;;;;;17.32;57.15;99890.53;5100828;27;20428;-62
2023/03/18 00:47:54;;;;;;;7.80;2.90;;;;;;;17.26;56.83;99895.72;5107785;28;20438;-61
2023/03/18 00:50:19;;;;;;;4.33;1.93;;;;;;;17.17;55.39;99889.47;5104217;28;20435;-61
2023/03/18 00:52:45;;;;;;;4.13;2.30;;;;;;;17.11;53.90;99896.69;5088833;28;20216;-61
2023/03/18 00:55:10;;;;;;;7.53;2.30;;;;;;;17.09;51.71;99893.41;5094248;28;20216;-60
2023/03/18 00:57:35;;;;;;;6.73;2.50;;;;;;;17.22;50.92;99900.56;5106230;28;20201;-61
2023/03/18 01:00:03;;;;;;;8.90;2.70;;;;;;;17.37;50.97;99896.75;5107295;28;20536;-61
2023/03/18 01:02:29;;;;;;;12.67;2.90;;;;;;;17.40;50.95;99889.47;5088902;28;20182;-61
2023/03/18 01:04:55;;;;;;;6.33;2.50;;;;;;;17.37;50.88;99896.75;5090494;28;20444;-61
2023/03/18 01:07:22;;;;;;;5.97;2.53;;;;;;;17.41;51.22;99889.06;5096729;28;20170;-61
2023/03/18 01:09:48;;;;;;;6.30;2.50;;;;;;;17.58;51.19;99894.25;5109618;28;20442;-60
2023/03/18 01:12:13;;;;;;;7.33;2.57;;;;;;;17.60;51.37;99893.88;5106742;28;20451;-61
2023/03/18 01:14:39;;;;;;;7.10;3.10;;;;;;;17.56;51.33;99895.84;5092947;28;20493;-61
2023/03/18 01:17:04;;;;;;;13.23;2.73;;;;;;;17.60;51.79;99888.16;5108847;28;20220;-61
2023/03/18 01:19:30;;;;;;;6.63;2.53;;;;;;;17.59;51.48;99890.19;5103302;28;20199;-61
2023/03/18 01:21:55;;;;;;;5.80;2.50;;;;;;;17.62;52.08;99882.88;5109244;28;20513;-60
2023/03/18 01:24:21;;;;;;;13.53;2.60;;;;;;;17.61;52.11;99875.53;5109565;28;20170;-61
2023/03/18 01:26:47;;;;;;;7.07;2.50;;;;;;;17.60;52.23;99879.59;5111365;28;20192;-61
2023/03/18 01:29:12;;;;;;;6.27;2.50;;;;;;;17.57;52.03;99872.63;5113440;28;20303;-61
2023/03/18 01:31:38;;;;;;;6.10;2.33;;;;;;;17.56;52.45;99882.38;5113650;28;20158;-61
2023/03/18 01:34:03;;;;;;;5.60;2.70;;;;;;;17.54;52.57;99881.13;5113517;28;20159;-61
2023/03/18 01:36:29;;;;;;;4.83;2.37;;;;;;;17.52;52.79;99892.09;5112757;28;20181;-61
2023/03/18 01:38:56;;;;;;;3.97;2.10;;;;;;;17.49;52.73;99881.44;5113405;28;20181;-61
2023/03/18 01:41:24;;;;;;;4.67;2.03;;;;;;;17.47;53.29;99884.72;5111936;28;20586;-61
2023/03/18 01:43:50;;;;;;;5.33;2.50;;;;;;;17.46;53.14;99883.03;5095424;28;20419;-61
2023/03/18 01:46:43;;;;;;;4.30;2.13;;;;;;;17.45;53.13;99883.44;5112805;28;20465;-61
2023/03/18 01:49:12;;;;;;;9.20;2.33;;;;;;;17.47;53.26;99890.41;5115038;27;20185;-61
2023/03/18 01:51:39;;;;;;;7.20;2.70;;;;;;;17.46;53.43;99876.53;5086420;28;20432;-61
2023/03/18 01:54:05;;;;;;;5.77;2.30;;;;;;;17.49;53.37;99870.03;5111984;28;20526;-60
2023/03/18 01:56:32;;;;;;;6.47;1.87;;;;;;;17.52;53.31;99872.13;5077896;28;20425;-61
2023/03/18 01:58:57;;;;;;;4.70;1.90;;;;;;;17.51;53.50;99877.00;5079045;28;20445;-61
2023/03/18 02:01:36;;;;;;;4.37;2.53;;;;;;;17.52;53.25;99870.09;5094737;28;21238;-61
2023/03/18 02:04:03;;;;;;;3.87;2.03;;;;;;;17.50;53.16;99875.38;5094465;28;20591;-61
2023/03/18 02:06:28;;;;;;;8.93;2.73;;;;;;;17.49;53.92;99882.28;5075722;28;20507;-61
2023/03/18 02:08:54;;;;;;;7.93;2.93;;;;;;;17.47;53.86;99884.72;5111986;28;20880;-61
2023/03/18 02:11:22;;;;;;;3.50;1.87;;;;;;;17.47;53.79;99881.84;5112186;28;20880;-61
2023/03/18 02:13:47;;;;;;;3.87;2.00;;;;;;;17.46;53.34;99877.34;5111177;28;20658;-61
2023/03/18 02:16:20;;;;;;;4.50;2.20;;;;;;;17.44;53.94;99879.75;5113882;27;20566;-61
2023/03/18 02:18:51;;;;;;;4.20;2.03;;;;;;;17.46;53.78;99880.19;5073787;28;20182;-61
2023/03/18 02:21:42;;;;;;;3.50;2.07;;;;;;;17.47;54.01;99881.03;5106760;28;20839;-61
2023/03/18 02:24:26;;;;;;;6.77;2.10;;;;;;;17.47;53.72;99875.31;5110995;27;20415;-61
2023/03/18 02:27:03;;;;;;;3.80;2.07;;;;;;;17.42;53.85;99876.47;5111713;28;20423;-61
2023/03/18 02:29:30;;;;;;;5.33;2.60;;;;;;;17.45;53.75;99875.69;5090835;28;20466;-61
2023/03/18 02:31:56;;;;;;;4.80;1.63;;;;;;;17.44;54.13;99874.06;5074382;28;20461;-61
2023/03/18 02:34:23;;;;;;;4.70;1.90;;;;;;;17.43;53.76;99868.72;5100144;28;20431;-61
2023/03/18 02:36:49;;;;;;;5.53;2.03;;;;;;;17.45;53.92;99869.97;5077166;28;20185;-61
2023/03/18 02:39:15;;;;;;;4.70;2.40;;;;;;;17.43;54.34;99878.13;5111629;28;20924;-61
2023/03/18 02:41:40;;;;;;;11.13;2.97;;;;;;;17.42;54.09;99882.19;5112539;28;20438;-61
2023/03/18 02:44:06;;;;;;;4.57;2.70;;;;;;;17.44;53.77;99878.91;5101850;27;20399;-61
2023/03/18 02:46:33;;;;;;;5.73;2.27;;;;;;;17.44;54.35;99876.91;5103268;28;20200;-61
2023/03/18 02:49:00;;;;;;;3.77;2.17;;;;;;;17.40;54.42;99878.88;5094340;28;20665;-61
2023/03/18 02:51:26;;;;;;;5.67;2.23;;;;;;;17.42;54.23;99882.19;5093717;28;20411;-60
2023/03/18 02:53:56;;;;;;;4.13;1.90;;;;;;;17.39;54.26;99888.66;5112273;28;21105;-61
2023/03/18 02:56:22;;;;;;;3.90;1.73;;;;;;;17.41;54.08;99888.28;5093909;28;20259;-61
2023/03/18 02:58:47;;;;;;;5.90;1.80;;;;;;;17.40;54.07;99889.47;5110821;28;20450;-61
2023/03/18 03:01:13;;;;;;;3.53;1.90;;;;;;;17.43;53.98;99886.69;5111523;28;20427;-61
2023/03/18 03:03:38;;;;;;;3.63;2.13;;;;;;;17.39;53.98;99888.66;5110246;28;20186;-61
2023/03/18 03:06:04;;;;;;;6.40;2.30;;;;;;;17.40;54.07;99896.00;5094587;28;20186;-61
2023/03/18 03:08:30;;;;;;;3.00;1.73;;;;;;;17.40;54.18;99889.47;5077848;28;20219;-61
2023/03/18 03:10:55;;;;;;;4.47;2.23;;;;;;;17.41;54.31;99897.63;5108481;28;20234;-61
2023/03/18 03:13:21;;;;;;;4.40;2.00;;;;;;;17.42;54.15;99895.63;5111595;28;20680;-61
2023/03/18 03:15:47;;;;;;;6.30;1.87;;;;;;;17.42;54.13;99895.63;5110861;28;20616;-61
2023/03/18 03:18:13;;;;;;;3.63;1.93;;;;;;;17.40;54.23;99889.47;5110848;28;20160;-61
2023/03/18 03:20:38;;;;;;;2.57;1.60;;;;;;;17.41;54.27;99903.34;5094954;27;20411;-61
2023/03/18 03:23:05;;;;;;;4.00;2.00;;;;;;;17.42;54.42;99899.31;5109512;28;20436;-61
2023/03/18 03:25:31;;;;;;;5.17;2.70;;;;;;;17.43;54.00;99902.97;5110464;28;20265;-61
2023/03/18 03:27:57;;;;;;;5.83;2.30;;;;;;;17.40;54.25;99907.41;5109897;28;20432;-62
2023/03/18 03:30:22;;;;;;;3.40;1.70;;;;;;;17.40;54.40;99906.59;5110483;28;20539;-60
2023/03/18 03:32:48;;;;;;;4.10;1.93;;;;;;;17.42;54.29;99905.00;5093067;28;20177;-61
2023/03/18 03:35:14;;;;;;;5.80;2.10;;;;;;;17.38;54.03;99903.25;5110348;28;20301;-61
2023/03/18 03:37:40;;;;;;;3.63;1.70;;;;;;;17.47;54.19;99906.72;5111335;28;20219;-61
2023/03/18 03:40:07;;;;;;;2.90;1.60;;;;;;;17.47;54.12;99912.41;5120090;27;20435;-61
2023/03/18 03:42:32;;;;;;;6.40;1.87;;;;;;;17.44;54.03;99908.28;5129414;27;20418;-61
2023/03/18 03:44:58;;;;;;;4.43;2.00;;;;;;;17.45;54.63;99907.09;5110962;28;20419;-61
2023/03/18 03:47:24;;;;;;;5.60;1.90;;;;;;;17.44;54.16;99902.59;5110795;28;20174;-60
2023/03/18 03:49:51;;;;;;;3.10;2.00;;;;;;;17.42;54.51;99899.31;5109922;28;20192;-61
2023/03/18 03:52:18;;;;;;;3.97;2.00;;;;;;;17.44;53.96;99904.59;5111537;28;20819;-61
2023/03/18 03:54:44;;;;;;;6.37;2.23;;;;;;;17.41;53.88;99894.78;5110165;28;20513;-61
2023/03/18 03:57:10;;;;;;;3.50;1.97;;;;;;;17.42;54.27;99905.00;5110948;28;20895;-61
2023/03/18 03:59:36;;;;;;;3.90;1.80;;;;;;;17.41;54.55;99903.34;5110740;28;20541;-61
2023/03/18 04:02:02;;;;;;;3.13;2.00;;;;;;;17.40;54.82;99896.00;5110184;28;20450;-61
2023/03/18 04:04:27;;;;;;;4.67;2.03;;;;;;;17.41;54.24;99909.03;5110212;28;20202;-61
2023/03/18 04:06:53;;;;;;;7.53;2.20;;;;;;;17.41;54.52;99906.19;5108426;28;20607;-61
2023/03/18 04:09:18;;;;;;;3.60;2.10;;;;;;;17.40;54.45;99898.84;5113274;27;20662;-61
2023/03/18 04:11:44;;;;;;;4.03;2.17;;;;;;;17.40;54.47;99900.91;5110971;28;20163;-61
2023/03/18 04:14:09;;;;;;;3.43;1.87;;;;;;;17.42;54.38;99899.31;5108996;28;20977;-61
2023/03/18 04:16:34;;;;;;;3.17;1.50;;;;;;;17.40;54.44;99906.59;5110875;28;20205;-62
2023/03/18 04:19:00;;;;;;;2.87;1.53;;;;;;;17.41;54.54;99903.34;5108809;28;20189;-61
2023/03/18 04:21:26;;;;;;;3.80;1.87;;;;;;;17.40;54.38;99901.69;5091890;28;20576;-61
2023/03/18 04:23:52;;;;;;;3.00;1.67;;;;;;;17.37;54.28;99902.44;5110496;28;20158;-61
2023/03/18 04:26:17;;;;;;;3.30;1.70;;;;;;;17.39;54.38;99911.47;5109647;28;20204;-61
2023/03/18 04:28:42;;;;;;;3.50;1.80;;;;;;;17.39;54.19;99908.63;5110558;28;20166;-61
2023/03/18 04:31:08;;;;;;;2.93;1.80;;;;;;;17.35;54.37;99910.56;5112123;27;20200;-61
2023/03/18 04:33:33;;;;;;;2.80;1.60;;;;;;;17.35;54.41;99910.56;5110293;28;20173;-61
2023/03/18 04:35:59;;;;;;;3.43;1.63;;;;;;;17.42;54.12;99910.72;5110082;28;20205;-61
2023/03/18 04:38:24;;;;;;;3.10;1.70;;;;;;;17.42;54.25;99910.72;5109460;28;20189;-61
2023/03/18 04:40:50;;;;;;;3.40;1.67;;;;;;;17.37;54.41;99907.31;5110069;28;20166;-61
2023/03/18 04:43:15;;;;;;;4.53;2.20;;;;;;;17.35;54.45;99916.25;5108513;28;20194;-61
2023/03/18 04:45:41;;;;;;;4.07;2.00;;;;;;;17.36;54.40;99923.59;5110411;28;20621;-61
2023/03/18 04:48:06;;;;;;;5.70;2.10;;;;;;;17.37;54.40;99922.44;5091925;28;20174;-60
2023/03/18 04:50:31;;;;;;;3.50;1.60;;;;;;;17.36;54.38;99914.25;5109666;28;20590;-61
2023/03/18 04:52:57;;;;;;;2.30;1.30;;;;;;;17.37;54.10;99915.88;5109876;28;20199;-61
2023/03/18 04:55:22;;;;;;;3.50;1.90;;;;;;;17.38;54.14;99918.34;5108866;28;20206;-61
2023/03/18 04:57:49;;;;;;;3.50;2.00;;;;;;;17.37;54.31;99918.72;5110358;28;20170;-61
2023/03/18 05:00:16;;;;;;;2.87;1.50;;;;;;;17.38;54.50;99920.38;5109795;28;20178;-61
2023/03/18 05:02:41;;;;;;;3.40;1.77;;;;;;;17.37;54.44;99922.44;5091715;28;20399;-61
2023/03/18 05:05:07;;;;;;;3.37;1.97;;;;;;;17.38;54.38;99926.91;5105908;28;20486;-61
2023/03/18 05:07:32;;;;;;;3.80;2.20;;;;;;;17.37;54.58;99925.28;5110180;28;20166;-61
2023/03/18 05:09:58;;;;;;;2.53;1.63;;;;;;;17.35;54.43;99916.25;5109369;28;20200;-61
2023/03/18 05:12:24;;;;;;;4.77;1.80;;;;;;;17.39;54.44;99920.03;5110342;28;20162;-61
2023/03/18 05:14:50;;;;;;;3.57;2.00;;;;;;;17.42;54.47;99922.13;5106287;28;20233;-61
2023/03/18 05:17:16;;;;;;;2.33;1.60;;;;;;;17.44;54.40;99924.59;5109979;28;20211;-61
2023/03/18 05:19:42;;;;;;;3.53;1.87;;;;;;;17.42;54.40;99922.13;5108631;28;20447;-61
2023/03/18 05:22:09;;;;;;;3.97;1.93;;;;;;;17.38;54.55;99926.91;5109674;28;20174;-61
2023/03/18 05:24:34;;;;;;;3.90;1.80;;;;;;;17.40;54.36;99924.53;5109885;28;21026;-61
2023/03/18 05:27:00;;;;;;;4.03;1.90;;;;;;;17.40;54.20;99933.09;5108876;28;20450;-61
2023/03/18 05:29:26;;;;;;;5.10;2.17;;;;;;;17.39;54.58;99927.75;5110134;28;20625;-61
2023/03/18 05:31:51;;;;;;;5.53;1.93;;;;;;;17.39;54.31;99936.31;5109901;28;20717;-61
2023/03/18 05:34:17;;;;;;;4.90;1.80;;;;;;;17.38;54.85;99926.09;5108939;28;20443;-62
2023/03/18 05:36:42;;;;;;;2.93;1.70;;;;;;;17.39;54.63;99934.31;5109573;28;20177;-62
2023/03/18 05:39:08;;;;;;;3.70;1.90;;;;;;;17.38;54.15;99931.78;5108913;28;20193;-62
2023/03/18 05:41:33;;;;;;;3.53;1.97;;;;;;;17.39;54.28;99940.00;5112167;28;20192;-62
2023/03/18 05:43:59;;;;;;;3.10;1.93;;;;;;;17.38;54.63;99929.78;5090513;28;20173;-62
2023/03/18 05:46:25;;;;;;;3.00;1.70;;;;;;;17.39;54.30;99934.31;5106273;28;20211;-62
2023/03/18 05:48:51;;;;;;;4.37;2.13;;;;;;;17.39;54.52;99930.63;5108184;28;20178;-62
2023/03/18 05:51:16;;;;;;;3.13;1.37;;;;;;;17.37;54.58;99938.72;5090441;28;20792;-61
2023/03/18 05:53:42;;;;;;;4.60;1.83;;;;;;;17.36;54.44;99937.06;5109565;28;20529;-62
2023/03/18 05:56:07;;;;;;;3.20;1.70;;;;;;;17.37;54.08;99933.84;5108999;28;20292;-61
2023/03/18 05:58:33;;;;;;;3.80;1.67;;;;;;;17.37;54.83;99939.53;5108661;28;20189;-62
2023/03/18 06:00:59;;;;;;;3.30;1.70;;;;;;;17.39;54.30;99940.00;5090266;28;20186;-62
2023/03/18 06:03:24;;;;;;;3.57;2.37;;;;;;;17.37;54.87;99939.53;5109800;28;20177;-62
2023/03/18 06:05:51;;;;;;;3.30;1.40;;;;;;;17.34;54.63;99940.28;5104599;28;20243;-61
2023/03/18 06:08:16;;;;;;;4.20;1.73;;;;;;;17.35;54.47;99944.00;5108509;28;20649;-61
2023/03/18 06:10:42;;;;;;;2.13;1.37;;;;;;;17.40;54.01;99953.06;5109085;28;20457;-61
2023/03/18 06:13:09;;;;;;;2.87;1.60;;;;;;;17.41;54.17;99946.16;5111454;28;20237;-61
2023/03/18 06:15:35;;;;;;;2.30;1.50;;;;;;;17.35;54.38;99946.84;5094625;28;20182;-61
2023/03/18 06:18:01;;;;;;;3.40;1.47;;;;;;;17.31;54.38;99943.91;5112969;28;20411;-62
2023/03/18 06:20:26;;;;;;;3.53;1.80;;;;;;;17.32;54.65;99937.00;5111846;28;20182;-62
2023/03/18 06:22:52;;;;;;;5.30;2.00;;;;;;;17.34;54.49;99946.00;5112805;28;20162;-62
2023/03/18 06:25:18;;;;;;;2.67;1.50;;;;;;;17.35;54.39;99941.13;5114758;27;20245;-61
2023/03/18 06:27:44;;;;;;;2.40;1.60;;;;;;;17.37;54.41;99947.28;5112837;28;20601;-61
2023/03/18 06:30:10;;;;;;;3.47;1.80;;;;;;;17.37;54.70;99947.28;5112152;28;20396;-61
2023/03/18 06:32:35;;;;;;;3.80;1.70;;;;;;;17.36;54.43;99946.44;5112876;28;20188;-61
2023/03/18 06:35:01;;;;;;;3.50;1.63;;;;;;;17.37;54.50;99947.28;5112452;28;20493;-62
2023/03/18 06:37:27;;;;;;;2.90;1.53;;;;;;;17.37;54.57;99952.97;5111838;28;20189;-62
2023/03/18 06:39:52;;;;;;;4.20;1.90;;;;;;;17.38;54.41;99955.44;5112208;28;20186;-61
2023/03/18 06:42:18;;;;;;;4.60;1.73;;;;;;;17.37;54.39;99952.97;5111679;28;20446;-61
2023/03/18 06:44:49;;;;;;;3.33;1.60;;;;;;;17.36;54.50;99954.19;5111220;28;20231;-61
2023/03/18 06:47:16;;;;;;;2.57;1.43;;;;;;;17.38;54.56;99968.88;5091874;28;20177;-61
2023/03/18 06:49:42;;;;;;;3.03;1.67;;;;;;;17.37;54.56;99970.09;5091845;28;20424;-62
2023/03/18 06:52:07;;;;;;;2.50;1.20;;;;;;;17.43;54.38;99966.59;5108294;28;20439;-62
2023/03/18 06:54:33;;;;;;;5.10;1.73;;;;;;;17.44;54.38;99973.09;5112029;28;20209;-62
2023/03/18 06:56:58;;;;;;;2.20;1.30;;;;;;;17.41;54.29;99976.72;5111093;28;20570;-62
2023/03/18 06:59:24;;;;;;;3.40;1.70;;;;;;;17.41;54.64;99977.53;5111510;28;20178;-62
2023/03/18 07:01:49;;;;;;;3.17;1.90;;;;;;;17.41;54.58;99968.97;5111833;28;20170;-62
2023/03/18 07:04:15;;;;;;;1.97;1.20;;;;;;;17.41;54.57;99979.59;5111059;28;20214;-62
2023/03/18 07:06:40;;;;;;;3.63;1.60;;;;;;;17.42;54.39;99984.91;5111872;28;20199;-62
2023/03/18 07:09:06;;;;;;;5.53;1.93;;;;;;;17.41;54.49;99982.44;5108992;28;20181;-62
2023/03/18 07:11:32;;;;;;;3.83;2.10;;;;;;;17.42;54.61;99990.63;5111837;28;20161;-62
2023/03/18 07:13:57;;;;;;;3.00;1.57;;;;;;;17.39;54.60;99988.53;5076189;28;20986;-61
2023/03/18 07:16:23;;;;;;;3.17;1.60;;;;;;;17.39;54.37;99991.38;5088451;28;20202;-62
2023/03/18 07:18:48;;;;;;;2.73;1.70;;;;;;;17.40;54.56;99993.00;5097951;27;20169;-62
2023/03/18 07:21:15;;;;;;;2.60;1.47;;;;;;;17.43;54.70;100000.00;5110758;28;20218;-62
2023/03/18 07:23:40;;;;;;;2.33;1.70;;;;;;;17.42;54.21;99995.50;5108557;28;20201;-61
2023/03/18 07:26:06;;;;;;;3.00;1.43;;;;;;;17.42;54.46;99998.34;5109970;28;20752;-61
2023/03/18 07:28:31;;;;;;;2.40;1.30;;;;;;;17.40;54.58;99995.06;5109928;28;20169;-61
2023/03/18 07:30:57;;;;;;;3.03;1.80;;;;;;;17.41;54.34;100000.38;5100059;28;20263;-61
2023/03/18 07:33:23;;;;;;;1.87;1.20;;;;;;;17.40;54.48;99998.72;5088051;28;20219;-61
2023/03/18 07:35:48;;;;;;;3.33;1.77;;;;;;;17.39;54.57;99999.94;5094267;28;20236;-61
2023/03/18 07:38:14;;;;;;;3.30;1.77;;;;;;;17.40;54.45;99995.88;5109603;28;20166;-61
2023/03/18 07:40:40;;;;;;;3.27;1.80;;;;;;;17.39;54.28;99997.06;5110096;28;20162;-62
2023/03/18 07:43:05;;;;;;;2.57;1.30;;;;;;;17.35;54.83;99990.44;5094105;27;20193;-61
2023/03/18 07:45:31;;;;;;;2.23;1.50;;;;;;;17.35;54.63;99986.78;5088548;28;20553;-61
2023/03/18 07:47:56;;;;;;;2.73;1.40;;;;;;;17.37;54.90;99987.22;5096355;28;20213;-62
2023/03/18 07:50:22;;;;;;;2.40;1.60;;;;;;;17.41;54.35;99986.09;5099518;28;20193;-60
2023/03/18 07:52:47;;;;;;;2.30;1.27;;;;;;;17.44;54.29;99991.06;5110078;28;20417;-62
2023/03/18 07:55:13;;;;;;;3.73;1.53;;;;;;;17.39;54.27;99990.53;5108963;28;20209;-61
2023/03/18 07:57:38;;;;;;;2.93;1.60;;;;;;;17.36;54.76;99983.53;5110213;28;20182;-61
2023/03/18 08:00:05;;;;;;;2.47;1.33;;;;;;;17.35;54.61;99990.44;5110060;28;20285;-62
2023/03/18 08:02:30;;;;;;;2.97;1.60;;;;;;;17.37;54.35;99981.50;5110265;28;20214;-61
2023/03/18 08:04:56;;;;;;;2.90;1.50;;;;;;;17.37;54.57;99987.22;5113321;27;20442;-61
2023/03/18 08:07:23;;;;;;;2.70;1.80;;;;;;;17.38;54.54;99989.69;5111086;28;20507;-61
2023/03/18 08:09:49;;;;;;;3.30;1.47;;;;;;;17.36;54.57;99994.94;5108011;28;20273;-61
2023/03/18 08:12:15;;;;;;;3.23;1.80;;;;;;;17.38;54.72;99994.56;5110504;28;20422;-61
2023/03/18 08:14:41;;;;;;;2.20;1.40;;;;;;;17.40;54.57;100004.44;5107683;28;20459;-61
2023/03/18 08:17:07;;;;;;;3.33;1.73;;;;;;;17.40;54.05;100009.31;5112137;27;20205;-62
2023/03/18 08:19:33;;;;;;;3.00;1.63;;;;;;;17.40;54.49;100009.31;5090958;28;20523;-61
2023/03/18 08:21:58;;;;;;;3.13;1.30;;;;;;;17.40;54.43;100009.31;5109430;28;20573;-61
2023/03/18 08:24:24;;;;;;;2.37;1.63;;;;;;;17.38;54.37;100001.09;5108806;28;20177;-61
2023/03/18 08:26:49;;;;;;;3.73;1.73;;;;;;;17.38;54.56;100011.69;5108854;28;20647;-61
2023/03/18 08:29:15;;;;;;;4.17;2.00;;;;;;;17.37;54.58;100019.44;5109908;28;20238;-62
2023/03/18 08:31:40;;;;;;;4.43;1.40;;;;;;;17.37;54.42;100015.75;5106928;28;20612;-61
2023/03/18 08:34:06;;;;;;;2.30;1.40;;;;;;;17.41;54.25;100014.63;5109459;28;20190;-61
2023/03/18 08:36:31;;;;;;;2.00;1.20;;;;;;;17.41;54.27;100011.78;5091454;28;20201;-61
2023/03/18 08:38:56;;;;;;;2.97;1.60;;;;;;;17.41;54.41;100008.13;5109643;28;20272;-62
2023/03/18 08:41:24;;;;;;;3.47;1.23;;;;;;;17.42;54.54;100004.06;5108264;28;20219;-61
2023/03/18 08:43:51;;;;;;;3.40;1.80;;;;;;;17.41;54.68;100000.38;5090703;28;20204;-61
2023/03/18 08:46:17;;;;;;;3.00;1.47;;;;;;;17.42;54.62;99998.34;5102684;28;20416;-61
2023/03/18 08:48:43;;;;;;;2.67;1.40;;;;;;;17.42;54.47;99996.31;5090136;28;20902;-61
2023/03/18 08:51:09;;;;;;;2.53;1.50;;;;;;;17.43;54.65;100002.84;5109968;28;20431;-62
2023/03/18 08:53:35;;;;;;;3.23;1.40;;;;;;;17.43;54.61;100005.69;5110027;28;20186;-62
2023/03/18 08:56:01;;;;;;;2.50;1.50;;;;;;;17.42;54.38;99998.34;5109321;28;20516;-61
2023/03/18 08:58:27;;;;;;;2.47;1.47;;;;;;;17.44;54.68;99999.63;5109279;28;20508;-61
2023/03/18 09:00:53;;;;;;;3.30;1.53;;;;;;;17.43;54.71;99989.41;5087691;28;20432;-62
2023/03/18 09:03:20;;;;;;;2.53;1.30;;;;;;;17.44;54.68;99987.34;5106488;28;20209;-62
2023/03/18 09:05:48;;;;;;;2.37;1.30;;;;;;;17.43;54.27;99989.41;5106586;28;20443;-61
2023/03/18 09:08:14;;;;;;;2.17;1.20;;;;;;;17.44;54.41;99993.91;5087134;28;20435;-61
2023/03/18 09:10:40;;;;;;;2.23;1.57;;;;;;;17.44;54.32;99996.75;5108565;28;20430;-62
2023/03/18 09:13:07;;;;;;;3.27;1.30;;;;;;;17.45;54.24;100000.44;5108480;28;20797;-61
2023/03/18 09:15:32;;;;;;;2.07;1.30;;;;;;;17.45;54.76;99997.59;5108569;28;20866;-61
2023/03/18 09:17:58;;;;;;;2.67;1.30;;;;;;;17.46;54.38;99999.25;5109567;28;20439;-62
2023/03/18 09:20:24;;;;;;;2.90;1.43;;;;;;;17.43;54.57;99997.13;5108922;28;20187;-61
2023/03/18 09:22:50;;;;;;;2.40;1.20;;;;;;;17.44;54.27;99988.19;5109205;28;20428;-62
2023/03/18 09:25:16;;;;;;;2.93;1.30;;;;;;;17.46;54.52;99991.47;5093977;28;20178;-62
2023/03/18 09:27:42;;;;;;;2.40;1.50;;;;;;;17.39;54.47;99979.94;5109388;28;20435;-61
2023/03/18 09:30:10;;;;;;;2.77;1.27;;;;;;;17.39;54.80;99982.81;5105917;28;20594;-61
2023/03/18 09:32:36;;;;;;;3.27;1.80;;;;;;;17.40;54.52;99983.66;5109629;28;21034;-62
2023/03/18 09:35:02;;;;;;;2.83;1.50;;;;;;;17.43;54.65;99986.56;5107120;28;20467;-62
2023/03/18 09:37:27;;;;;;;2.97;1.27;;;;;;;17.28;50.38;99981.78;5067008;28;20436;-62
2023/03/18 09:39:53;;;;;;;9.73;2.00;;;;;;;17.23;49.09;99976.38;5101659;28;20197;-62
2023/03/18 09:42:51;;;;;;;6.00;2.07;;;;;;;17.23;49.27;99972.69;5106794;28;20177;-62
2023/03/18 09:45:23;;;;;;;7.87;2.37;;;;;;;17.27;46.56;99979.28;5107850;28;20601;-62
2023/03/18 09:48:03;;;;;;;6.60;2.70;;;;;;;17.38;45.28;99984.00;5072309;28;20436;-61
2023/03/18 09:50:46;;;;;;;6.10;1.70;;;;;;;17.53;45.96;99980.22;5109895;28;20423;-61
2023/03/18 09:53:29;;;;;;;7.13;1.93;;;;;;;17.79;47.58;99983.09;5103313;28;20573;-61
2023/03/18 09:55:56;;;;;;;17.10;2.37;;;;;;;17.96;48.65;99976.81;5088352;28;20958;-63
2023/03/18 09:58:29;;;;;;;9.77;2.47;;;;;;;18.03;50.50;99971.22;5085294;28;20530;-62
2023/03/18 10:00:58;;;;;;;15.13;2.50;;;;;;;18.18;51.17;99977.94;5089141;28;21164;-61
2023/03/18 10:03:42;;;;;;;6.57;2.23;;;;;;;18.33;52.06;99971.25;5058593;28;20397;-62
2023/03/18 10:06:21;;;;;;;8.63;2.33;;;;;;;18.43;52.17;99977.13;5091556;27;20888;-62
2023/03/18 10:09:12;;;;;;;7.67;2.30;;;;;;;18.47;53.12;99977.97;5077100;28;20423;-62
2023/03/18 10:11:41;;;;;;;7.80;2.50;;;;;;;18.55;54.16;99976.88;5110208;28;20458;-62
2023/03/18 10:14:21;;;;;;;13.63;4.13;;;;;;;18.73;55.19;99975.06;5089707;28;20479;-62
2023/03/18 10:16:57;;;;;;;7.90;2.70;;;;;;;18.86;55.21;99969.91;5088578;28;20444;-61
2023/03/18 10:19:22;;;;;;;9.50;4.00;;;;;;;18.67;56.72;99973.75;5102769;28;20430;-62
2023/03/18 10:22:10;;;;;;;9.50;3.70;;;;;;;18.65;56.79;99969.63;5091119;28;20810;-61
2023/03/18 10:25:06;;;;;;;8.80;3.50;;;;;;;18.56;57.31;99977.69;5108808;27;20212;-62
2023/03/18 10:27:44;;;;;;;7.77;3.23;;;;;;;18.55;57.50;99976.88;5073903;28;20440;-62
2023/03/18 10:30:35;;;;;;;19.37;3.17;;;;;;;18.49;55.97;99971.88;5089236;28;20497;-61
2023/03/18 10:33:06;;;;;;;8.97;2.90;;;;;;;18.44;54.76;99970.19;5103733;28;20944;-62
2023/03/18 10:35:34;;;;;;;9.07;3.20;;;;;;;18.49;52.94;99971.88;5109183;28;20487;-62
2023/03/18 10:38:07;;;;;;;8.00;2.43;;;;;;;18.51;52.49;99970.28;5091479;28;20477;-62
2023/03/18 10:40:37;;;;;;;7.63;2.57;;;;;;;18.48;51.93;99979.66;5108677;28;20431;-61
2023/03/18 10:43:03;;;;;;;8.93;2.73;;;;;;;18.38;51.87;99974.63;5089383;28;20472;-62
2023/03/18 10:45:29;;;;;;;9.03;2.13;;;;;;;18.41;51.52;99978.72;5108761;28;20440;-62
2023/03/18 10:48:16;;;;;;;7.87;1.90;;;;;;;18.43;50.73;99964.84;5091002;28;20215;-62
2023/03/18 10:50:45;;;;;;;7.70;1.90;;;;;;;18.45;50.56;99959.56;5102159;28;20420;-62
2023/03/18 10:53:18;;;;;;;5.53;2.43;;;;;;;18.42;50.71;99966.88;5091002;28;20442;-62
2023/03/18 10:55:58;;;;;;;9.37;2.77;;;;;;;18.44;50.30;99964.47;5091012;28;20466;-62
2023/03/18 10:58:23;;;;;;;6.63;1.80;;;;;;;18.41;50.39;99961.59;5091926;28;20446;-62
2023/03/18 11:00:50;;;;;;;8.60;2.60;;;;;;;18.47;50.30;99960.81;5090748;28;20447;-62
2023/03/18 11:03:43;;;;;;;9.60;2.30;;;;;;;18.41;49.94;99953.81;5109017;28;20184;-62
2023/03/18 11:06:17;;;;;;;9.67;2.53;;;;;;;18.34;49.96;99956.59;5065018;28;20440;-61
2023/03/18 11:08:45;;;;;;;7.43;2.10;;;;;;;18.29;50.46;99950.34;5073516;28;20442;-62
2023/03/18 11:11:18;;;;;;;12.90;2.57;;;;;;;18.33;50.80;99946.38;5074132;28;20416;-62
2023/03/18 11:13:49;;;;;;;4.77;1.70;;;;;;;18.33;50.39;99951.25;5091135;28;20566;-63
2023/03/18 11:16:33;;;;;;;6.43;2.10;;;;;;;18.29;50.28;99954.03;5091496;28;20447;-62
2023/03/18 11:18:58;;;;;;;6.13;2.63;;;;;;;18.26;49.86;99960.50;5109754;28;20510;-62
2023/03/18 11:21:28;;;;;;;7.63;1.87;;;;;;;18.29;50.38;99951.19;5111354;28;20832;-63
2023/03/18 11:24:09;;;;;;;4.47;1.93;;;;;;;18.29;50.60;99956.91;5109838;27;20193;-61
2023/03/18 11:26:54;;;;;;;3.70;1.90;;;;;;;18.33;50.95;99949.22;5107310;28;20780;-62
2023/03/18 11:29:25;;;;;;;3.97;1.60;;;;;;;18.36;51.35;99957.00;5099025;28;20934;-63
2023/03/18 11:31:57;;;;;;;5.10;1.53;;;;;;;18.39;51.36;99941.97;5090190;28;20454;-61
2023/03/18 11:34:29;;;;;;;9.43;2.30;;;;;;;18.41;51.80;99936.66;5105316;28;20443;-61